Indianapolis, Indiana
Traffic Map
Current Weather Conditions
Indianapolis, Indiana
Few Clouds
Few Clouds
17°
Feels Like: 17°
Wind Chill: 17° Ceiling: Unl
Heat Index: 17° Visibility: 10mi
Dew Point: 12° Wind: 6mph
Humidity: 72% Direction: 350° (N)
Pressure: 29.98in Gusts: 0mph
Raw Report DataKIND 301554Z 35005KT 10SM FEW013 FEW250 17/12 A2998 RMK AO2 SLP149 T01720122
Traffic Incident Summary
Active as of:
Severity:
Category:
InformationThere was an issue retrieving the traffic information for this location. Please try a different location or try again shortly.
Advertisements
Track Severe Weather on mobile